Time;durP1;ratioP1;P1;durP2;ratioP2;P2;SDS_P1;SDS_P2;PMS_P1;PMS_P2;Temp;Humidity;BMP_temperature;BMP_pressure;BME280_temperature;BME280_humidity;BME280_pressure;Samples;Min_cycle;Max_cycle;Signal;HPM_P1;HPM_P2
2022/03/13 00:01:17;;;;;;;70.15;41.28;;;6.20;99.90;;;;;;5002850;28;20078;-67
2022/03/13 00:03:45;;;;;;;66.78;40.20;;;6.30;99.90;;;;;;5003056;28;20120;-67
2022/03/13 00:06:12;;;;;;;70.78;42.10;;;6.30;99.90;;;;;;5005996;28;20062;-67
2022/03/13 00:08:40;;;;;;;81.00;46.10;;;6.30;99.90;;;;;;5003896;28;20121;-67
2022/03/13 00:11:15;;;;;;;70.28;41.80;;;6.40;99.90;;;;;;5002061;28;20081;-67
2022/03/13 00:13:51;;;;;;;77.80;45.80;;;6.40;99.90;;;;;;5009497;28;20054;-67
2022/03/13 00:16:18;;;;;;;68.57;42.92;;;6.50;99.90;;;;;;5000676;28;20157;-67
2022/03/13 00:18:46;;;;;;;72.50;44.75;;;6.50;99.90;;;;;;4995799;28;20201;-67
2022/03/13 00:21:19;;;;;;;77.67;47.17;;;6.50;99.90;;;;;;5006454;28;20057;-66
2022/03/13 00:23:46;;;;;;;68.20;42.90;;;6.40;99.90;;;;;;5002693;28;20312;-67
2022/03/13 00:26:15;;;;;;;75.03;44.28;;;6.50;99.90;;;;;;5002220;28;20049;-67
2022/03/13 00:28:41;;;;;;;76.00;45.40;;;6.50;99.90;;;;;;4992618;28;20037;-67
2022/03/13 00:31:07;;;;;;;77.57;43.92;;;6.50;99.90;;;;;;5006141;28;20507;-67
2022/03/13 00:33:33;;;;;;;76.07;43.17;;;6.50;99.90;;;;;;5008202;28;20049;-67
2022/03/13 00:35:59;;;;;;;73.10;42.55;;;6.50;99.90;;;;;;5003734;28;20046;-67
2022/03/13 00:38:25;;;;;;;75.60;44.92;;;6.50;99.90;;;;;;5010141;28;20395;-67
2022/03/13 00:40:57;;;;;;;77.47;44.10;;;6.50;99.90;;;;;;5007975;28;20133;-67
2022/03/13 00:43:24;;;;;;;70.90;44.30;;;6.40;99.90;;;;;;4992486;28;20069;-67
2022/03/13 00:45:51;;;;;;;82.28;45.70;;;6.40;99.90;;;;;;5004187;28;20076;-67
2022/03/13 00:48:18;;;;;;;73.03;43.72;;;6.30;99.90;;;;;;5006172;28;20053;-67
2022/03/13 00:50:43;;;;;;;70.18;44.35;;;6.20;99.90;;;;;;5008529;28;20049;-67
2022/03/13 00:53:09;;;;;;;74.32;45.63;;;6.20;99.90;;;;;;5006489;28;20107;-67
2022/03/13 00:55:35;;;;;;;73.00;45.38;;;6.20;99.90;;;;;;5008340;28;20042;-67
2022/03/13 00:58:01;;;;;;;68.97;41.28;;;6.20;99.90;;;;;;5007424;28;20084;-67
2022/03/13 01:00:27;;;;;;;77.18;45.75;;;6.10;99.90;;;;;;5005407;28;20061;-67
2022/03/13 01:02:52;;;;;;;70.82;47.08;;;6.10;99.90;;;;;;5016132;28;20048;-67
2022/03/13 01:05:23;;;;;;;81.32;49.00;;;6.10;99.90;;;;;;5008669;28;20030;-67
2022/03/13 01:07:56;;;;;;;77.53;48.65;;;6.10;99.90;;;;;;5008371;28;20053;-67
2022/03/13 01:10:23;;;;;;;81.78;46.90;;;6.10;99.90;;;;;;5005754;28;20049;-67
2022/03/13 01:12:51;;;;;;;76.57;45.45;;;6.10;99.90;;;;;;5010937;28;20054;-67
2022/03/13 01:15:16;;;;;;;77.35;45.70;;;6.10;99.90;;;;;;5009000;28;20092;-66
2022/03/13 01:17:43;;;;;;;74.95;46.45;;;6.10;99.90;;;;;;5016785;28;20072;-67
2022/03/13 01:20:21;;;;;;;72.15;47.28;;;6.10;99.90;;;;;;5015901;28;20053;-67
2022/03/13 01:22:50;;;;;;;72.78;43.72;;;6.10;99.90;;;;;;5005052;28;20058;-67
2022/03/13 01:25:16;;;;;;;75.20;45.50;;;6.10;99.90;;;;;;5001000;28;20113;-67
2022/03/13 01:27:42;;;;;;;64.35;44.03;;;6.10;99.90;;;;;;5010974;28;20782;-67
2022/03/13 01:30:10;;;;;;;78.78;46.67;;;6.10;99.90;;;;;;5008523;28;20046;-67
2022/03/13 01:32:38;;;;;;;70.72;44.50;;;6.10;99.90;;;;;;5009679;28;20053;-67
2022/03/13 01:35:04;;;;;;;75.45;45.53;;;6.10;99.90;;;;;;4997134;28;20411;-67
2022/03/13 01:37:35;;;;;;;75.70;46.42;;;6.00;99.90;;;;;;5008605;28;20064;-67
2022/03/13 01:40:10;;;;;;;78.70;46.25;;;6.10;99.90;;;;;;5008630;28;20042;-67
2022/03/13 01:42:37;;;;;;;67.40;42.15;;;6.10;99.90;;;;;;5003757;28;20057;-67
2022/03/13 01:45:04;;;;;;;78.45;45.20;;;6.10;99.90;;;;;;5004615;28;20124;-66
2022/03/13 01:47:29;;;;;;;74.35;45.17;;;6.10;99.90;;;;;;4999434;28;20138;-66
2022/03/13 01:49:55;;;;;;;75.88;43.78;;;6.10;99.90;;;;;;5009169;28;20124;-66
2022/03/13 01:52:26;;;;;;;67.45;41.70;;;6.20;99.90;;;;;;4996012;28;20089;-66
2022/03/13 01:54:53;;;;;;;87.85;42.42;;;6.20;99.90;;;;;;5004015;28;20452;-66
2022/03/13 01:57:20;;;;;;;77.72;46.60;;;6.30;99.90;;;;;;5001491;28;20061;-66
2022/03/13 01:59:52;;;;;;;72.00;45.08;;;6.30;99.90;;;;;;5007499;28;20088;-66
2022/03/13 02:02:19;;;;;;;68.47;42.35;;;6.30;99.90;;;;;;5002634;28;20044;-66
2022/03/13 02:04:50;;;;;;;83.28;46.00;;;6.30;99.90;;;;;;5008388;28;20115;-66
2022/03/13 02:07:15;;;;;;;72.00;45.28;;;6.40;99.90;;;;;;5004841;28;20124;-66
2022/03/13 02:09:41;;;;;;;77.68;45.88;;;6.30;99.90;;;;;;5008669;28;20125;-66
2022/03/13 02:12:08;;;;;;;74.68;45.42;;;6.40;99.90;;;;;;5005813;28;20404;-66
2022/03/13 02:14:34;;;;;;;72.20;42.58;;;6.40;99.90;;;;;;4999003;28;20045;-66
2022/03/13 02:16:59;;;;;;;69.65;43.90;;;6.40;99.90;;;;;;5003097;28;20050;-66
2022/03/13 02:19:25;;;;;;;79.43;45.92;;;6.30;99.90;;;;;;5010528;28;20046;-66
2022/03/13 02:21:53;;;;;;;69.88;44.88;;;6.30;99.90;;;;;;5004198;28;20045;-66
2022/03/13 02:24:26;;;;;;;72.43;43.15;;;6.40;99.90;;;;;;5008733;28;20045;-66
2022/03/13 02:27:03;;;;;;;68.50;44.20;;;6.40;99.90;;;;;;4999972;28;20057;-66
2022/03/13 02:29:30;;;;;;;75.67;45.83;;;6.40;99.90;;;;;;5005668;28;20088;-67
2022/03/13 02:31:58;;;;;;;75.82;46.30;;;6.40;99.90;;;;;;5008346;28;20042;-67
2022/03/13 02:34:26;;;;;;;69.82;44.30;;;6.30;99.90;;;;;;5008869;28;20117;-67
2022/03/13 02:36:58;;;;;;;74.13;45.03;;;6.30;99.90;;;;;;5006711;28;20034;-67
2022/03/13 02:39:25;;;;;;;69.45;41.70;;;6.30;99.90;;;;;;4999761;28;20043;-67
2022/03/13 02:41:50;;;;;;;75.53;46.95;;;6.30;99.90;;;;;;4996762;28;20046;-67
2022/03/13 02:44:19;;;;;;;72.43;44.63;;;6.30;99.90;;;;;;4997739;28;20065;-67
2022/03/13 02:46:48;;;;;;;86.43;45.88;;;6.30;99.90;;;;;;4997582;28;20054;-67
2022/03/13 02:49:19;;;;;;;73.00;43.88;;;6.30;99.90;;;;;;5001134;28;20052;-66
2022/03/13 02:51:46;;;;;;;63.17;41.13;;;6.30;99.90;;;;;;5001026;28;20046;-66
2022/03/13 02:54:13;;;;;;;76.53;46.00;;;6.20;99.90;;;;;;4998876;28;20045;-66
2022/03/13 02:56:39;;;;;;;80.43;44.90;;;6.30;99.90;;;;;;5004333;28;20145;-66
2022/03/13 02:59:05;;;;;;;75.22;46.58;;;6.30;99.90;;;;;;5007758;28;20072;-66
2022/03/13 03:01:32;;;;;;;73.75;43.60;;;6.30;99.90;;;;;;5009289;28;20140;-66
2022/03/13 03:04:00;;;;;;;75.40;44.33;;;6.30;99.90;;;;;;5010536;28;20113;-66
2022/03/13 03:06:29;;;;;;;67.57;43.70;;;6.30;99.90;;;;;;5006726;28;20439;-66
2022/03/13 03:08:55;;;;;;;72.88;45.75;;;6.30;99.90;;;;;;5009218;28;20046;-66
2022/03/13 03:11:21;;;;;;;68.03;44.20;;;6.20;99.90;;;;;;5008204;28;20471;-66
2022/03/13 03:13:47;;;;;;;68.03;44.13;;;6.20;99.90;;;;;;5012105;28;20049;-66
2022/03/13 03:16:13;;;;;;;71.43;45.03;;;6.20;99.90;;;;;;5009630;28;20057;-66
2022/03/13 03:18:39;;;;;;;70.80;43.20;;;6.20;99.90;;;;;;5008583;28;20470;-66
2022/03/13 03:21:05;;;;;;;70.25;44.35;;;6.10;99.90;;;;;;5008844;28;20049;-66
2022/03/13 03:23:31;;;;;;;70.22;43.38;;;6.10;99.90;;;;;;5010627;28;20034;-66
2022/03/13 03:25:56;;;;;;;75.15;45.55;;;6.10;99.90;;;;;;5010972;28;20038;-66
2022/03/13 03:28:22;;;;;;;70.40;44.35;;;6.00;99.90;;;;;;5009350;28;20042;-66
2022/03/13 03:30:48;;;;;;;79.03;41.85;;;6.00;99.90;;;;;;5009821;28;20046;-66
2022/03/13 03:33:14;;;;;;;75.18;46.08;;;6.00;99.90;;;;;;5008929;28;20049;-66
2022/03/13 03:35:40;;;;;;;76.82;46.80;;;5.90;99.90;;;;;;5011012;28;20391;-66
2022/03/13 03:38:05;;;;;;;67.40;46.70;;;5.80;99.90;;;;;;5009020;28;20050;-66
2022/03/13 03:40:33;;;;;;;67.25;43.63;;;5.80;99.90;;;;;;5010649;28;20430;-66
2022/03/13 03:43:01;;;;;;;71.82;45.05;;;5.60;99.90;;;;;;5010996;28;20052;-67
2022/03/13 03:45:27;;;;;;;69.45;44.35;;;5.70;99.90;;;;;;5010234;28;20088;-66
2022/03/13 03:47:54;;;;;;;74.93;43.15;;;5.60;99.90;;;;;;5009150;28;20042;-66
2022/03/13 03:50:20;;;;;;;71.88;43.20;;;5.50;99.90;;;;;;5008392;28;20483;-66
2022/03/13 03:52:46;;;;;;;73.68;42.80;;;5.50;99.90;;;;;;5007943;28;20100;-66
2022/03/13 03:55:12;;;;;;;68.47;44.33;;;5.50;99.90;;;;;;5007950;28;20065;-66
2022/03/13 03:57:38;;;;;;;76.63;45.80;;;5.50;99.90;;;;;;5002638;28;20061;-66
2022/03/13 04:00:06;;;;;;;65.15;42.35;;;5.50;99.90;;;;;;5005656;28;20419;-66
2022/03/13 04:02:33;;;;;;;75.68;45.63;;;5.40;99.90;;;;;;5007653;28;20057;-66
2022/03/13 04:04:59;;;;;;;64.20;42.03;;;5.40;99.90;;;;;;5009144;28;20131;-66
2022/03/13 04:07:24;;;;;;;67.80;40.65;;;5.30;99.90;;;;;;5010922;28;20081;-66
2022/03/13 04:09:50;;;;;;;69.70;42.45;;;5.30;99.90;;;;;;5005954;28;20143;-66
2022/03/13 04:12:18;;;;;;;81.57;45.08;;;5.30;99.90;;;;;;5009770;28;20053;-66
2022/03/13 04:14:44;;;;;;;70.38;44.80;;;5.20;99.90;;;;;;5004882;28;20117;-66
2022/03/13 04:17:10;;;;;;;68.10;39.95;;;5.10;99.90;;;;;;5006958;28;20044;-66
2022/03/13 04:19:36;;;;;;;71.85;45.22;;;5.10;99.90;;;;;;5003408;28;20053;-66
2022/03/13 04:22:02;;;;;;;71.32;45.17;;;5.00;99.90;;;;;;5007291;28;20096;-66
2022/03/13 04:24:31;;;;;;;72.93;41.53;;;5.00;99.90;;;;;;5011226;28;20537;-66
2022/03/13 04:26:57;;;;;;;76.97;43.58;;;4.90;99.90;;;;;;5007030;28;20093;-66
2022/03/13 04:29:23;;;;;;;70.85;44.80;;;4.80;99.90;;;;;;5006219;28;20165;-66
2022/03/13 04:31:52;;;;;;;71.88;43.83;;;4.70;99.90;;;;;;5010092;28;20099;-66
2022/03/13 04:34:17;;;;;;;67.88;43.78;;;4.60;99.90;;;;;;5009033;28;20072;-66
2022/03/13 04:36:44;;;;;;;89.20;45.05;;;4.50;99.90;;;;;;5004534;28;20675;-66
2022/03/13 04:39:10;;;;;;;76.43;44.15;;;4.40;99.90;;;;;;5007156;28;20164;-66
2022/03/13 04:41:38;;;;;;;81.05;45.85;;;4.30;99.90;;;;;;5008289;28;20065;-66
2022/03/13 04:44:05;;;;;;;67.30;42.35;;;4.10;99.90;;;;;;5008927;28;20069;-66
2022/03/13 04:46:30;;;;;;;75.90;44.13;;;4.20;99.90;;;;;;5008083;28;20093;-66
2022/03/13 04:48:57;;;;;;;71.45;46.33;;;4.20;99.90;;;;;;5008106;28;20140;-66
2022/03/13 04:51:23;;;;;;;72.05;44.20;;;4.10;99.90;;;;;;5006396;28;20057;-67
2022/03/13 04:53:49;;;;;;;81.85;45.03;;;4.00;99.90;;;;;;5010069;28;20041;-66
2022/03/13 04:56:14;;;;;;;67.63;44.42;;;3.90;99.90;;;;;;5006541;28;20396;-66
2022/03/13 04:58:40;;;;;;;78.63;44.42;;;3.80;99.90;;;;;;5009016;28;20379;-66
2022/03/13 05:01:06;;;;;;;65.82;44.08;;;3.80;99.90;;;;;;4998780;28;20054;-66
2022/03/13 05:03:33;;;;;;;75.50;44.22;;;3.80;99.90;;;;;;5008577;28;20045;-66
2022/03/13 05:05:59;;;;;;;66.80;41.47;;;3.90;99.90;;;;;;5005386;28;20575;-66
2022/03/13 05:08:26;;;;;;;61.72;41.80;;;4.00;99.90;;;;;;5009921;28;20053;-66
2022/03/13 05:10:52;;;;;;;79.53;44.15;;;4.00;99.90;;;;;;5003989;28;20101;-66
2022/03/13 05:13:18;;;;;;;71.57;43.92;;;4.10;99.90;;;;;;5009836;28;20424;-66
2022/03/13 05:15:45;;;;;;;70.97;41.67;;;4.10;99.90;;;;;;5007187;28;20053;-66
2022/03/13 05:18:12;;;;;;;79.32;46.85;;;4.20;99.90;;;;;;5009710;28;20058;-66
2022/03/13 05:20:39;;;;;;;77.65;43.03;;;4.20;99.90;;;;;;5008504;28;20710;-66
2022/03/13 05:23:07;;;;;;;65.10;39.83;;;4.30;99.90;;;;;;5004431;28;20487;-66
2022/03/13 05:25:34;;;;;;;69.93;39.97;;;4.30;99.90;;;;;;5017709;28;20034;-66
2022/03/13 05:28:00;;;;;;;70.18;42.85;;;4.40;99.90;;;;;;5005457;28;20484;-66
2022/03/13 05:30:26;;;;;;;73.10;42.97;;;4.40;99.90;;;;;;5006678;28;20170;-66
2022/03/13 05:32:52;;;;;;;76.45;42.67;;;4.30;99.90;;;;;;5009090;28;20045;-66
2022/03/13 05:35:18;;;;;;;76.53;43.13;;;4.30;99.90;;;;;;5006389;28;20412;-66
2022/03/13 05:37:46;;;;;;;69.40;42.97;;;4.30;99.90;;;;;;5009327;28;20139;-66
2022/03/13 05:40:13;;;;;;;80.18;46.55;;;4.30;99.90;;;;;;5007325;28;20095;-66
2022/03/13 05:42:46;;;;;;;79.18;44.97;;;4.30;99.90;;;;;;5009325;28;20085;-66
2022/03/13 05:45:15;;;;;;;73.10;43.83;;;4.10;99.90;;;;;;5004692;28;20065;-66
2022/03/13 05:47:58;;;;;;;66.25;41.72;;;4.10;99.90;;;;;;5008353;28;20506;-66
2022/03/13 05:50:28;;;;;;;63.92;40.17;;;4.00;99.90;;;;;;5009826;28;20077;-66
2022/03/13 05:52:56;;;;;;;73.22;45.53;;;3.90;99.90;;;;;;5006704;28;20064;-66
2022/03/13 05:55:26;;;;;;;68.43;42.30;;;3.90;99.90;;;;;;5021159;28;20042;-66
2022/03/13 05:57:56;;;;;;;69.25;42.30;;;3.90;99.90;;;;;;5009065;28;20285;-66
2022/03/13 06:00:23;;;;;;;73.88;44.17;;;3.90;99.90;;;;;;5008621;28;20080;-66
2022/03/13 06:02:51;;;;;;;71.03;42.03;;;3.90;99.90;;;;;;5008774;28;20530;-66
2022/03/13 06:05:18;;;;;;;76.65;45.70;;;3.90;99.90;;;;;;5004737;28;20046;-66
2022/03/13 06:07:45;;;;;;;72.03;42.95;;;4.00;99.90;;;;;;5007627;28;20189;-68
2022/03/13 06:10:13;;;;;;;64.85;41.40;;;4.00;99.90;;;;;;5000821;28;20108;-68
2022/03/13 06:12:40;;;;;;;73.85;43.15;;;4.10;99.90;;;;;;5007313;28;20053;-67
2022/03/13 06:15:07;;;;;;;70.93;44.05;;;4.20;99.90;;;;;;5014831;28;20042;-68
2022/03/13 06:17:38;;;;;;;75.88;44.20;;;4.30;99.90;;;;;;5002132;28;20049;-67
2022/03/13 06:20:07;;;;;;;61.42;42.78;;;4.50;99.90;;;;;;5006330;28;20053;-67
2022/03/13 06:22:33;;;;;;;;;;;4.50;99.90;;;;;;5008699;28;20463;-67
2022/03/13 06:24:59;;;;;;;67.55;42.83;;;4.60;99.90;;;;;;5010165;28;19961;-68
2022/03/13 06:27:24;;;;;;;79.28;42.88;;;4.70;99.90;;;;;;5022074;28;20121;-67
2022/03/13 06:29:50;;;;;;;68.82;40.92;;;4.70;99.90;;;;;;5012745;28;20077;-67
2022/03/13 06:32:16;;;;;;;68.28;39.97;;;4.80;99.90;;;;;;5009153;28;20442;-67
2022/03/13 06:34:44;;;;;;;69.78;41.92;;;4.90;99.90;;;;;;5011399;28;20899;-67
2022/03/13 06:37:10;;;;;;;;;;;5.00;99.90;;;;;;5020122;28;20082;-67
2022/03/13 06:39:37;;;;;;;60.92;39.15;;;4.90;99.90;;;;;;5014453;28;20039;-67
2022/03/13 06:42:03;;;;;;;59.83;41.10;;;5.00;99.90;;;;;;5015314;28;20060;-67
2022/03/13 06:44:28;;;;;;;62.05;39.13;;;5.10;99.90;;;;;;5013781;28;20069;-67
2022/03/13 06:46:54;;;;;;;65.07;41.53;;;5.20;99.90;;;;;;5014488;28;20049;-67
2022/03/13 06:49:20;;;;;;;57.03;38.50;;;5.30;99.90;;;;;;5011278;28;20119;-66
2022/03/13 06:51:46;;;;;;;75.30;42.75;;;5.30;99.90;;;;;;4999665;28;20045;-67
2022/03/13 06:54:12;;;;;;;68.80;41.33;;;5.30;99.90;;;;;;5018966;28;20045;-67
2022/03/13 06:56:40;;;;;;;62.65;40.17;;;5.40;99.90;;;;;;5013780;28;20103;-67
2022/03/13 06:59:06;;;;;;;61.58;41.92;;;5.50;99.90;;;;;;5009819;28;20102;-67
2022/03/13 07:01:33;;;;;;;69.47;41.13;;;5.60;99.90;;;;;;5010532;28;20045;-67
2022/03/13 07:03:58;;;;;;;68.22;39.83;;;5.70;99.90;;;;;;5011605;28;20611;-67
2022/03/13 07:06:24;;;;;;;64.35;39.00;;;5.90;99.90;;;;;;5016325;28;20041;-67
2022/03/13 07:08:50;;;;;;;68.55;41.50;;;6.00;99.90;;;;;;5017568;28;20118;-67
2022/03/13 07:11:16;;;;;;;67.25;41.70;;;6.00;99.90;;;;;;5015357;28;20038;-67
2022/03/13 07:13:45;;;;;;;58.65;38.75;;;5.90;99.90;;;;;;5010758;28;20501;-67
2022/03/13 07:16:13;;;;;;;59.28;40.70;;;5.90;99.90;;;;;;5014058;28;20539;-67
2022/03/13 07:18:39;;;;;;;64.28;38.22;;;5.90;99.90;;;;;;5003808;28;20046;-67
2022/03/13 07:21:05;;;;;;;65.45;38.95;;;5.90;99.90;;;;;;5016546;28;20051;-67
2022/03/13 07:23:32;;;;;;;63.08;37.90;;;5.90;99.90;;;;;;5018513;28;20042;-68
2022/03/13 07:25:57;;;;;;;60.00;36.47;;;5.90;99.90;;;;;;5016305;28;20052;-68
2022/03/13 07:28:23;;;;;;;62.08;36.67;;;5.90;99.90;;;;;;5019562;28;20045;-68
2022/03/13 07:30:50;;;;;;;60.35;36.60;;;5.90;99.90;;;;;;5022786;28;20099;-67
2022/03/13 07:33:16;;;;;;;58.30;37.25;;;5.90;99.90;;;;;;5007355;28;20142;-68
2022/03/13 07:35:41;;;;;;;68.07;39.30;;;6.00;99.90;;;;;;5021225;28;20526;-67
2022/03/13 07:38:08;;;;;;;60.92;38.28;;;6.00;99.90;;;;;;5008035;28;20037;-67
2022/03/13 07:40:34;;;;;;;64.63;38.75;;;6.10;99.90;;;;;;5020048;28;20151;-67
2022/03/13 07:42:59;;;;;;;53.10;37.65;;;6.10;99.90;;;;;;5013915;28;20066;-67
2022/03/13 07:45:26;;;;;;;57.78;36.88;;;6.20;99.90;;;;;;5011923;28;20046;-67
2022/03/13 07:47:54;;;;;;;62.85;37.72;;;6.20;99.90;;;;;;5006316;28;20058;-68
2022/03/13 07:50:21;;;;;;;53.53;34.53;;;6.20;99.90;;;;;;5022571;28;20045;-68
2022/03/13 07:52:47;;;;;;;61.53;34.60;;;6.30;99.90;;;;;;5003746;28;20062;-68
2022/03/13 07:55:14;;;;;;;70.25;36.65;;;6.30;99.90;;;;;;5003684;28;20050;-68
2022/03/13 07:57:40;;;;;;;57.40;37.13;;;6.40;99.90;;;;;;5005110;28;20114;-68
2022/03/13 08:00:07;;;;;;;54.10;35.05;;;6.40;99.90;;;;;;5013462;28;20473;-67
2022/03/13 08:02:33;;;;;;;59.17;37.13;;;6.50;99.90;;;;;;5004702;28;20096;-67
2022/03/13 08:04:58;;;;;;;56.33;35.83;;;6.50;99.90;;;;;;5014242;28;20037;-67
2022/03/13 08:07:24;;;;;;;58.10;36.53;;;6.60;99.90;;;;;;5014216;28;20491;-68
2022/03/13 08:09:50;;;;;;;54.70;35.28;;;6.70;99.90;;;;;;5015524;28;20041;-67
2022/03/13 08:12:15;;;;;;;64.68;36.95;;;6.70;99.90;;;;;;5010881;28;20628;-68
2022/03/13 08:14:41;;;;;;;57.33;35.45;;;6.80;99.90;;;;;;5017169;28;20056;-68
2022/03/13 08:17:07;;;;;;;62.67;36.42;;;7.10;99.90;;;;;;5013440;28;20450;-68
2022/03/13 08:19:32;;;;;;;67.25;37.35;;;7.40;99.90;;;;;;5007828;28;20049;-68
2022/03/13 08:21:59;;;;;;;58.45;34.10;;;7.50;99.90;;;;;;4999536;28;20517;-68
2022/03/13 08:24:25;;;;;;;51.95;34.65;;;7.60;99.90;;;;;;5010507;28;20471;-68
2022/03/13 08:26:50;;;;;;;52.92;33.88;;;7.70;99.90;;;;;;5001709;28;20042;-68
2022/03/13 08:29:16;;;;;;;58.53;36.22;;;7.70;99.90;;;;;;5003391;28;20091;-67
2022/03/13 08:31:42;;;;;;;57.83;34.65;;;7.90;99.90;;;;;;5011369;28;20049;-68
2022/03/13 08:34:08;;;;;;;56.90;34.58;;;7.90;99.90;;;;;;5009817;28;20384;-68
2022/03/13 08:36:44;;;;;;;53.35;35.28;;;7.90;99.90;;;;;;5008574;28;20124;-67
2022/03/13 08:39:09;;;;;;;59.17;33.67;;;7.90;99.90;;;;;;5010148;28;20064;-67
2022/03/13 08:41:35;;;;;;;53.25;33.97;;;8.00;99.90;;;;;;5003837;28;20049;-67
2022/03/13 08:44:02;;;;;;;49.35;34.00;;;8.00;99.90;;;;;;5009172;28;20093;-67
2022/03/13 08:46:27;;;;;;;51.42;33.13;;;8.10;99.90;;;;;;5010574;28;20477;-67
2022/03/13 08:48:53;;;;;;;52.60;33.08;;;8.20;99.90;;;;;;5009803;28;20065;-67
2022/03/13 08:51:21;;;;;;;49.20;31.70;;;8.30;99.90;;;;;;5009868;28;20502;-68
2022/03/13 08:53:47;;;;;;;52.63;32.22;;;8.50;99.90;;;;;;5008580;28;20091;-67
2022/03/13 08:56:14;;;;;;;54.33;33.60;;;8.60;99.70;;;;;;5007698;28;20053;-67
2022/03/13 08:58:41;;;;;;;47.78;32.58;;;8.70;97.80;;;;;;5008889;28;20081;-67
2022/03/13 09:01:08;;;;;;;54.80;33.37;;;8.80;97.10;;;;;;5006604;28;20455;-68
2022/03/13 09:03:36;;;;;;;57.15;33.42;;;9.00;96.10;;;;;;5009455;28;20046;-67
2022/03/13 09:06:02;;;;;;;51.60;34.10;;;9.30;95.90;;;;;;5005834;28;20100;-68
2022/03/13 09:08:27;;;;;;;46.72;29.58;;;9.50;94.60;;;;;;4995560;28;20095;-68
2022/03/13 09:10:53;;;;;;;48.63;30.10;;;9.70;93.80;;;;;;5006646;28;20046;-68
2022/03/13 09:13:20;;;;;;;48.33;31.10;;;9.90;91.90;;;;;;5003626;28;20495;-67
2022/03/13 09:15:49;;;;;;;45.42;29.80;;;10.10;91.20;;;;;;5004968;28;20104;-67
2022/03/13 09:18:15;;;;;;;47.03;30.92;;;10.20;90.40;;;;;;5002029;28;20088;-67
2022/03/13 09:20:42;;;;;;;42.15;27.85;;;10.40;89.90;;;;;;5002951;28;20046;-67
2022/03/13 09:23:08;;;;;;;47.78;29.85;;;10.70;86.70;;;;;;5005062;28;20052;-67
2022/03/13 09:25:35;;;;;;;39.70;27.70;;;10.80;85.20;;;;;;5006719;28;20042;-68
2022/03/13 09:28:04;;;;;;;43.10;29.27;;;10.90;84.10;;;;;;5004994;28;20045;-67
2022/03/13 09:30:30;;;;;;;47.58;31.05;;;11.00;79.40;;;;;;5007410;28;20050;-68
2022/03/13 09:32:55;;;;;;;43.67;28.17;;;11.10;80.50;;;;;;5009937;28;20389;-68
2022/03/13 09:35:21;;;;;;;47.78;30.08;;;11.30;79.30;;;;;;5007724;28;20046;-68
2022/03/13 09:37:49;;;;;;;49.65;30.42;;;11.40;79.10;;;;;;5009723;28;20053;-68
2022/03/13 09:40:17;;;;;;;45.97;28.60;;;11.50;77.10;;;;;;5007689;28;20053;-68
2022/03/13 09:42:43;;;;;;;48.88;29.58;;;11.60;76.00;;;;;;5008915;28;20052;-68
2022/03/13 09:45:10;;;;;;;51.08;28.67;;;11.70;75.30;;;;;;5000954;28;20069;-69
2022/03/13 09:47:36;;;;;;;46.78;28.90;;;11.80;74.10;;;;;;5003068;28;20056;-71
2022/03/13 09:50:02;;;;;;;46.50;28.35;;;12.00;73.20;;;;;;5005193;28;20050;-68
2022/03/13 09:52:28;;;;;;;45.00;28.70;;;12.10;73.80;;;;;;5009510;28;20046;-69
2022/03/13 09:54:54;;;;;;;45.65;29.55;;;12.20;72.40;;;;;;5011750;28;20088;-69
2022/03/13 09:57:20;;;;;;;48.03;30.08;;;12.20;71.30;;;;;;5008209;28;20084;-69
2022/03/13 09:59:46;;;;;;;45.72;28.27;;;12.30;72.30;;;;;;5006834;28;20042;-67
2022/03/13 10:02:11;;;;;;;52.72;31.67;;;12.40;71.20;;;;;;5008032;28;20080;-68
2022/03/13 10:04:37;;;;;;;52.70;32.45;;;12.50;70.50;;;;;;5006944;28;20042;-69
2022/03/13 10:07:03;;;;;;;52.83;32.03;;;12.60;69.90;;;;;;5008256;28;20072;-69
2022/03/13 10:09:29;;;;;;;42.00;29.77;;;12.60;69.10;;;;;;5003953;28;20053;-68
2022/03/13 10:12:08;;;;;;;59.88;31.50;;;12.60;68.40;;;;;;5010654;28;20056;-68
2022/03/13 10:14:35;;;;;;;39.33;27.90;;;12.70;66.90;;;;;;5005829;28;20050;-68
2022/03/13 10:17:01;;;;;;;44.38;29.88;;;12.70;68.40;;;;;;5004042;28;20046;-68
2022/03/13 10:19:28;;;;;;;49.33;32.28;;;12.80;67.90;;;;;;5005896;28;20053;-68
2022/03/13 10:22:05;;;;;;;46.80;29.97;;;12.90;68.00;;;;;;5008513;28;20053;-68
2022/03/13 10:24:43;;;;;;;44.93;29.40;;;12.90;66.00;;;;;;5006470;28;20064;-68
2022/03/13 10:27:14;;;;;;;45.67;30.23;;;12.80;66.10;;;;;;5007507;28;20119;-67
2022/03/13 10:29:42;;;;;;;53.13;30.70;;;12.80;66.70;;;;;;5003130;28;20108;-67
2022/03/13 10:32:09;;;;;;;55.05;30.92;;;12.80;66.90;;;;;;5003589;28;20061;-68
2022/03/13 10:34:36;;;;;;;44.45;29.05;;;12.80;67.30;;;;;;5004621;28;20389;-68
2022/03/13 10:37:02;;;;;;;42.78;30.00;;;12.80;67.70;;;;;;5004053;28;20046;-68
2022/03/13 10:39:29;;;;;;;48.88;31.08;;;12.80;67.40;;;;;;5008437;28;20475;-68
2022/03/13 10:42:03;;;;;;;46.67;30.27;;;12.80;66.60;;;;;;5008911;28;20045;-67
2022/03/13 10:44:34;;;;;;;45.97;30.67;;;12.90;67.80;;;;;;5008282;28;20435;-72
2022/03/13 10:47:08;;;;;;;49.97;29.55;;;13.00;67.50;;;;;;5003437;28;20064;-69
2022/03/13 10:49:43;;;;;;;53.47;30.70;;;13.00;66.60;;;;;;5003176;28;20053;-67
2022/03/13 10:52:30;;;;;;;52.95;29.92;;;13.00;65.70;;;;;;4999534;28;20923;-68
2022/03/13 10:55:00;;;;;;;47.35;31.10;;;13.10;64.80;;;;;;5007887;28;20070;-68
2022/03/13 10:57:25;;;;;;;56.00;33.20;;;13.10;66.00;;;;;;5002883;28;20046;-69
2022/03/13 11:00:09;;;;;;;51.20;32.08;;;13.10;65.10;;;;;;5007115;28;20046;-69
2022/03/13 11:02:35;;;;;;;45.72;30.83;;;13.20;64.50;;;;;;5002659;28;20050;-70
2022/03/13 11:05:01;;;;;;;48.78;31.45;;;13.20;65.30;;;;;;5005883;28;20046;-69
2022/03/13 11:07:27;;;;;;;47.60;31.40;;;13.20;64.50;;;;;;5005374;28;20054;-69
2022/03/13 11:09:54;;;;;;;41.85;30.73;;;13.10;63.30;;;;;;5002213;28;20053;-69
2022/03/13 11:12:20;;;;;;;58.03;32.60;;;13.10;64.20;;;;;;4990782;28;20133;-68
2022/03/13 11:14:53;;;;;;;51.15;33.13;;;13.10;63.80;;;;;;5008575;28;20104;-70
2022/03/13 11:17:22;;;;;;;51.28;31.45;;;13.10;63.80;;;;;;5005016;28;20100;-69
2022/03/13 11:19:52;;;;;;;46.63;30.35;;;13.20;64.10;;;;;;5009671;28;20042;-70
2022/03/13 11:22:23;;;;;;;51.95;31.60;;;13.20;63.90;;;;;;5008842;28;20081;-69
2022/03/13 11:24:50;;;;;;;47.75;31.45;;;13.40;63.50;;;;;;5002176;28;20049;-69
2022/03/13 11:27:16;;;;;;;55.15;33.17;;;13.40;63.00;;;;;;5008254;28;20423;-69
2022/03/13 11:29:43;;;;;;;51.03;33.10;;;13.50;62.70;;;;;;5009644;28;20157;-69
2022/03/13 11:32:50;;;;;;;50.90;29.40;;;13.50;63.40;;;;;;5002691;28;20046;-69
2022/03/13 11:35:17;;;;;;;46.35;30.23;;;13.60;61.30;;;;;;4988335;28;20064;-69
2022/03/13 11:37:47;;;;;;;57.80;32.47;;;13.70;60.40;;;;;;5008854;28;20054;-69
2022/03/13 11:40:15;;;;;;;39.47;26.67;;;13.70;61.10;;;;;;4999934;28;20104;-69
2022/03/13 11:42:56;;;;;;;46.10;30.77;;;13.80;61.50;;;;;;5001291;28;20046;-68
2022/03/13 11:45:28;;;;;;;52.53;31.95;;;14.00;60.00;;;;;;5007896;28;20062;-68
2022/03/13 11:48:15;;;;;;;61.28;30.02;;;14.10;58.60;;;;;;5009492;28;20120;-68
2022/03/13 11:50:58;;;;;;;48.90;32.73;;;14.20;56.90;;;;;;4991708;28;20108;-68
2022/03/13 11:53:28;;;;;;;54.83;31.05;;;14.30;57.90;;;;;;5002539;28;20126;-69
2022/03/13 11:55:59;;;;;;;49.30;32.38;;;14.40;58.10;;;;;;5008593;28;20081;-68
2022/03/13 11:58:41;;;;;;;51.15;28.20;;;14.60;56.50;;;;;;5006710;28;20522;-68
2022/03/13 12:01:09;;;;;;;45.15;31.02;;;14.70;55.80;;;;;;5002379;28;20050;-69
2022/03/13 12:03:35;;;;;;;46.15;28.67;;;14.80;56.80;;;;;;5001621;28;20540;-68
2022/03/13 12:06:02;;;;;;;50.17;31.05;;;15.00;55.90;;;;;;5010478;28;20041;-68
2022/03/13 12:09:04;;;;;;;49.30;31.45;;;15.00;54.90;;;;;;5008588;28;20125;-69
2022/03/13 12:11:41;;;;;;;48.28;29.63;;;15.10;54.60;;;;;;5008151;28;20057;-68
2022/03/13 12:14:08;;;;;;;46.50;28.70;;;15.20;55.30;;;;;;5011047;28;20128;-69
2022/03/13 12:16:39;;;;;;;48.15;32.15;;;15.20;55.00;;;;;;5010571;28;20081;-68
2022/03/13 12:19:07;;;;;;;50.28;31.88;;;15.30;53.90;;;;;;5010984;28;20052;-69
2022/03/13 12:21:33;;;;;;;44.60;29.33;;;15.30;54.80;;;;;;4993010;28;20574;-69
2022/03/13 12:24:13;;;;;;;50.63;32.25;;;15.40;53.70;;;;;;5010277;28;20052;-69
2022/03/13 12:26:39;;;;;;;41.08;28.73;;;15.50;53.00;;;;;;5010685;28;20100;-68
2022/03/13 12:29:07;;;;;;;48.72;31.88;;;15.50;54.10;;;;;;5022239;28;20053;-69
2022/03/13 12:31:47;;;;;;;46.20;30.58;;;15.60;54.30;;;;;;5006985;28;20108;-69
2022/03/13 12:34:13;;;;;;;49.72;31.20;;;15.60;52.60;;;;;;5010166;28;20133;-69
2022/03/13 12:36:41;;;;;;;44.50;29.85;;;15.60;53.60;;;;;;5005088;28;20161;-69
2022/03/13 12:39:14;;;;;;;45.30;30.10;;;15.70;52.70;;;;;;5007848;28;20599;-68